< < Back
Terminal Aerodrome Forecast


Current Version              Previous Versions:   1  2  3  4  5  6  7  8  9  

Terminal Aerodrome Forecast

544
FTUS42 KILM 272320
TAFILM
TAF
KILM 272320Z 2800/2824 12006KT P6SM SCT030 SCT050
     FM280300 05003KT P6SM SCT020 SCT060 SCT150
      TEMPO 2809/2811 5SM BR SCT010
     FM281400 09007KT P6SM SCT020 SCT050 SCT130=



Latest METAR

944
SAUS70 KWBC 280256
MTRILM
METAR KILM 280253Z AUTO 11003KT 10SM CLR 25/22 A2999 RMK AO2 SLP155
T02500222 50005


USA.gov is the U.S. government's official web portal to all federal, state and local government web resources and services.